createdAt,value
2019-05-03T00:02:28.004Z,8.90
2019-05-03T00:04:59.480Z,6.47
2019-05-03T00:07:29.365Z,8.40
2019-05-03T00:09:59.292Z,6.03
2019-05-03T00:12:32.254Z,8.30
2019-05-03T00:15:16.195Z,12.93
2019-05-03T00:17:46.148Z,13.30
2019-05-03T00:20:16.033Z,13.15
2019-05-03T00:22:46.264Z,13.50
2019-05-03T00:25:16.077Z,15.88
2019-05-03T00:27:45.887Z,13.53
2019-05-03T00:30:15.769Z,11.22
2019-05-03T00:32:45.772Z,12.20
2019-05-03T00:35:23.119Z,11.80
2019-05-03T00:37:57.673Z,10.00
2019-05-03T00:40:28.706Z,9.30
2019-05-03T00:42:58.599Z,12.18
2019-05-03T00:45:28.464Z,11.70
2019-05-03T00:47:58.303Z,11.25
2019-05-03T00:50:28.188Z,11.05
2019-05-03T00:52:58.006Z,9.73
2019-05-03T00:55:29.523Z,10.82
2019-05-03T00:57:59.414Z,11.40
2019-05-03T01:00:29.363Z,9.50
2019-05-03T01:02:59.172Z,14.25
2019-05-03T01:05:29.000Z,8.38
2019-05-03T01:07:58.805Z,9.88
2019-05-03T01:10:28.592Z,8.90
2019-05-03T01:12:58.392Z,10.63
2019-05-03T01:15:31.927Z,9.25
2019-05-03T01:18:03.126Z,10.55
2019-05-03T01:20:33.147Z,9.33
2019-05-03T01:23:03.030Z,9.10
2019-05-03T01:25:35.445Z,9.35
2019-05-03T01:28:04.466Z,12.53
2019-05-03T01:30:34.422Z,10.70
2019-05-03T01:33:04.242Z,10.32
2019-05-03T01:35:34.056Z,13.72
2019-05-03T01:38:03.939Z,9.35
2019-05-03T01:40:33.813Z,12.05
2019-05-03T01:43:03.677Z,10.95
2019-05-03T01:45:33.647Z,10.82
2019-05-03T01:48:21.804Z,10.65
2019-05-03T01:50:56.931Z,10.25
2019-05-03T01:53:28.440Z,18.35
2019-05-03T01:55:58.347Z,16.73
2019-05-03T01:58:28.292Z,15.85
2019-05-03T02:01:16.302Z,15.18
2019-05-03T02:04:00.171Z,13.95
2019-05-03T02:06:31.778Z,11.70
2019-05-03T02:09:01.774Z,11.30
2019-05-03T02:11:33.176Z,8.25
2019-05-03T02:14:03.121Z,10.75
2019-05-03T02:16:33.016Z,10.93
2019-05-03T02:19:02.884Z,13.00
2019-05-03T02:21:33.051Z,10.58
2019-05-03T02:24:02.930Z,9.33
2019-05-03T02:26:32.725Z,12.65
2019-05-03T02:29:02.537Z,10.48
2019-05-03T02:31:32.974Z,9.58
2019-05-03T02:34:03.673Z,10.28
2019-05-03T02:36:33.898Z,12.43
2019-05-03T02:39:06.541Z,12.75
2019-05-03T02:41:36.345Z,13.10
2019-05-03T02:44:06.346Z,10.72
2019-05-03T02:46:52.924Z,15.53
2019-05-03T02:49:25.770Z,9.83
2019-05-03T02:51:56.154Z,11.85
2019-05-03T02:54:26.818Z,11.22
2019-05-03T02:56:57.081Z,10.93
2019-05-03T02:59:26.891Z,10.05
2019-05-03T03:01:56.851Z,11.55
2019-05-03T03:04:26.781Z,11.43
2019-05-03T03:06:56.717Z,11.03
2019-05-03T03:09:26.685Z,9.00
2019-05-03T03:11:58.841Z,12.05
2019-05-03T03:14:28.657Z,10.10
2019-05-03T03:16:59.098Z,9.90
2019-05-03T03:19:28.960Z,12.73
2019-05-03T03:22:00.405Z,8.10
2019-05-03T03:24:30.341Z,8.05
2019-05-03T03:27:00.165Z,11.88
2019-05-03T03:29:30.029Z,11.08
2019-05-03T03:32:09.644Z,10.25
2019-05-03T03:34:54.700Z,9.23
2019-05-03T03:37:17.703Z,9.05
2019-05-03T03:39:47.484Z,12.37
2019-05-03T03:42:18.405Z,7.92
2019-05-03T03:44:48.274Z,9.65
2019-05-03T03:47:18.386Z,7.97
2019-05-03T03:49:48.241Z,10.10
2019-05-03T03:52:18.205Z,12.53
2019-05-03T03:54:48.240Z,7.55
2019-05-03T03:57:18.115Z,12.15
2019-05-03T03:59:49.078Z,8.25
2019-05-03T04:02:18.882Z,8.70
2019-05-03T04:04:49.123Z,9.60
2019-05-03T04:07:19.249Z,9.83
2019-05-03T04:09:49.282Z,7.95
2019-05-03T04:12:19.773Z,8.55
2019-05-03T04:14:51.287Z,6.67
2019-05-03T04:17:25.737Z,10.30
2019-05-03T04:19:56.194Z,7.53
2019-05-03T04:22:26.013Z,8.88
2019-05-03T04:24:56.869Z,9.08
2019-05-03T04:27:27.738Z,8.30
2019-05-03T04:29:57.886Z,9.00
2019-05-03T04:32:28.964Z,9.88
2019-05-03T04:34:59.041Z,14.60
2019-05-03T04:37:28.921Z,9.58
2019-05-03T04:39:58.741Z,8.40
2019-05-03T04:42:28.537Z,12.05
2019-05-03T04:44:58.418Z,12.07
2019-05-03T04:47:28.289Z,14.15
2019-05-03T04:49:58.303Z,11.12
2019-05-03T04:52:28.462Z,14.70
2019-05-03T04:54:59.929Z,13.53
2019-05-03T04:57:39.936Z,16.42
2019-05-03T05:00:01.339Z,11.12
2019-05-03T05:02:31.129Z,10.05
2019-05-03T05:05:01.003Z,13.88
2019-05-03T05:07:31.114Z,14.80
2019-05-03T05:10:01.008Z,13.10
2019-05-03T05:12:30.886Z,12.07
2019-05-03T05:15:00.771Z,10.68
2019-05-03T05:17:32.206Z,10.28
2019-05-03T05:20:05.327Z,10.90
2019-05-03T05:22:35.939Z,11.73
2019-05-03T05:25:08.145Z,10.05
2019-05-03T05:27:53.331Z,13.98
2019-05-03T05:30:20.123Z,9.55
2019-05-03T05:32:50.231Z,15.95
2019-05-03T05:35:20.187Z,12.33
2019-05-03T05:37:50.056Z,14.30
2019-05-03T05:40:22.001Z,11.22
2019-05-03T05:42:54.437Z,11.28
2019-05-03T05:45:24.673Z,12.50
2019-05-03T05:48:05.042Z,17.40
2019-05-03T05:50:36.224Z,11.80
2019-05-03T05:53:06.164Z,13.83
2019-05-03T05:55:40.476Z,16.20
2019-05-03T05:58:15.689Z,14.65
2019-05-03T06:00:55.038Z,11.08
2019-05-03T06:03:25.276Z,10.25
2019-05-03T06:05:56.808Z,8.30
2019-05-03T06:08:28.669Z,8.43
2019-05-03T06:11:04.553Z,17.07
2019-05-03T06:13:39.107Z,10.60
2019-05-03T06:16:27.212Z,9.63
2019-05-03T06:18:58.740Z,10.70
2019-05-03T06:21:30.175Z,9.95
2019-05-03T06:24:01.608Z,11.00
2019-05-03T06:26:34.693Z,7.67
2019-05-03T06:29:08.109Z,6.55
2019-05-03T06:31:55.465Z,8.15
2019-05-03T06:34:26.418Z,7.50
2019-05-03T06:37:00.883Z,8.70
2019-05-03T06:39:30.687Z,9.45
2019-05-03T06:42:00.557Z,8.80
2019-05-03T06:44:30.370Z,8.38
2019-05-03T06:47:01.199Z,8.53
2019-05-03T06:49:31.984Z,9.70
2019-05-03T06:52:01.885Z,11.05
2019-05-03T06:54:34.657Z,11.63
2019-05-03T06:57:09.500Z,10.30
2019-05-03T06:59:45.218Z,6.53
2019-05-03T07:02:17.260Z,12.05
2019-05-03T07:04:48.789Z,9.13
2019-05-03T07:07:32.113Z,7.17
2019-05-03T07:10:14.897Z,8.68
2019-05-03T07:13:04.913Z,9.68
2019-05-03T07:15:35.258Z,7.87
2019-05-03T07:18:05.891Z,5.65
2019-05-03T07:20:44.568Z,7.17
2019-05-03T07:23:15.737Z,6.15
2019-05-03T07:25:45.718Z,17.07
2019-05-03T07:28:15.608Z,11.12
2019-05-03T07:30:45.581Z,6.58
2019-05-03T07:33:20.151Z,9.33
2019-05-03T07:35:49.973Z,10.20
2019-05-03T07:38:19.795Z,6.92
2019-05-03T07:40:49.652Z,11.33
2019-05-03T07:43:19.516Z,9.50
2019-05-03T07:45:49.380Z,8.93
2019-05-03T07:48:19.180Z,8.45
2019-05-03T07:50:49.070Z,7.72
2019-05-03T07:53:19.017Z,7.62
2019-05-03T07:55:50.452Z,8.20
2019-05-03T07:58:25.311Z,8.63
2019-05-03T08:01:05.462Z,6.03
2019-05-03T08:03:28.341Z,6.70
2019-05-03T08:05:58.219Z,9.15
2019-05-03T08:08:28.386Z,8.48
2019-05-03T08:10:58.181Z,7.25
2019-05-03T08:13:27.972Z,8.25
2019-05-03T08:15:57.844Z,5.83
2019-05-03T08:18:27.844Z,8.30
2019-05-03T08:20:57.669Z,10.03
2019-05-03T08:23:30.359Z,8.08
2019-05-03T08:25:59.718Z,10.83
2019-05-03T08:28:29.648Z,10.90
2019-05-03T08:31:01.092Z,7.75
2019-05-03T08:33:35.631Z,8.90
2019-05-03T08:36:05.907Z,9.70
2019-05-03T08:38:37.337Z,9.45
2019-05-03T08:41:08.873Z,5.58
2019-05-03T08:43:38.743Z,9.58
2019-05-03T08:46:08.721Z,12.50
2019-05-03T08:48:38.996Z,9.83
2019-05-03T08:51:08.798Z,14.18
2019-05-03T08:53:39.032Z,11.60
2019-05-03T08:56:08.852Z,9.93
2019-05-03T08:58:38.964Z,6.33
2019-05-03T09:01:08.758Z,7.03
2019-05-03T09:03:38.720Z,10.53
2019-05-03T09:06:08.607Z,7.80
2019-05-03T09:08:38.493Z,11.05
2019-05-03T09:11:13.056Z,8.45
2019-05-03T09:13:50.392Z,5.90
2019-05-03T09:16:20.347Z,8.48
2019-05-03T09:18:50.257Z,7.67
2019-05-03T09:21:20.198Z,14.20
2019-05-03T09:23:50.021Z,9.68
2019-05-03T09:26:19.874Z,7.87
2019-05-03T09:28:50.743Z,9.60
2019-05-03T09:31:20.685Z,8.03
2019-05-03T09:33:50.501Z,6.78
2019-05-03T09:36:20.472Z,6.08
2019-05-03T09:38:50.635Z,7.53
2019-05-03T09:41:20.572Z,8.28
2019-05-03T09:43:50.382Z,7.33
2019-05-03T09:46:20.172Z,7.00
2019-05-03T09:48:59.801Z,9.75
2019-05-03T09:51:25.546Z,10.60
2019-05-03T09:54:05.216Z,6.03
2019-05-03T09:56:57.603Z,11.60
2019-05-03T09:59:25.489Z,8.85
2019-05-03T10:01:55.404Z,9.28
2019-05-03T10:04:25.594Z,6.87
2019-05-03T10:06:55.648Z,11.55
2019-05-03T10:09:26.348Z,10.43
2019-05-03T10:11:56.436Z,10.05
2019-05-03T10:14:26.253Z,9.08
2019-05-03T10:17:00.714Z,10.95
2019-05-03T10:19:37.701Z,8.85
2019-05-03T10:22:02.052Z,11.33
2019-05-03T10:24:31.914Z,8.95
2019-05-03T10:27:01.938Z,9.80
2019-05-03T10:29:31.804Z,9.50
2019-05-03T10:32:05.951Z,10.72
2019-05-03T10:34:35.842Z,12.75
2019-05-03T10:37:07.422Z,10.65
2019-05-03T10:39:37.253Z,10.53
2019-05-03T10:42:07.129Z,7.53
2019-05-03T10:44:38.130Z,12.47
2019-05-03T10:47:08.173Z,8.73
2019-05-03T10:49:38.104Z,13.35
2019-05-03T10:52:09.549Z,10.90
2019-05-03T10:54:39.425Z,14.60
2019-05-03T10:57:11.007Z,13.90
2019-05-03T10:59:40.813Z,10.08
2019-05-03T11:02:18.165Z,11.25
2019-05-03T11:04:48.105Z,15.48
2019-05-03T11:07:18.000Z,11.78
2019-05-03T11:09:51.902Z,13.50
2019-05-03T11:12:19.376Z,18.52
2019-05-03T11:14:49.622Z,13.20
2019-05-03T11:17:19.558Z,16.42
2019-05-03T11:19:49.434Z,9.90
2019-05-03T11:22:19.326Z,15.83
2019-05-03T11:24:49.689Z,10.38
2019-05-03T11:27:21.224Z,7.92
2019-05-03T11:29:52.086Z,18.67
2019-05-03T11:32:25.474Z,7.83
2019-05-03T11:35:11.532Z,15.32
2019-05-03T11:37:45.469Z,8.63
2019-05-03T11:40:15.734Z,4.72
2019-05-03T11:42:46.593Z,7.90
2019-05-03T11:45:16.857Z,9.15
2019-05-03T11:47:46.686Z,11.43
2019-05-03T11:50:16.521Z,6.53
2019-05-03T11:52:47.225Z,8.65
2019-05-03T11:55:17.315Z,9.50
2019-05-03T11:57:47.199Z,4.97
2019-05-03T12:00:18.958Z,8.80
2019-05-03T12:02:50.884Z,5.25
2019-05-03T12:05:25.269Z,5.67
2019-05-03T12:07:55.134Z,7.05
2019-05-03T12:10:37.089Z,8.53
2019-05-03T12:13:01.200Z,5.03
2019-05-03T12:15:31.069Z,4.40
2019-05-03T12:18:05.435Z,4.92
2019-05-03T12:20:37.225Z,3.90
2019-05-03T12:23:06.782Z,3.98
2019-05-03T12:25:37.922Z,4.55
2019-05-03T12:28:08.064Z,7.30
2019-05-03T12:30:38.089Z,13.48
2019-05-03T12:33:07.992Z,4.28
2019-05-03T12:35:37.773Z,3.58
2019-05-03T12:38:07.729Z,4.05
2019-05-03T12:40:37.554Z,3.58
2019-05-03T12:43:07.349Z,3.40
2019-05-03T12:45:37.149Z,3.20
2019-05-03T12:48:07.106Z,4.10
2019-05-03T12:50:37.171Z,4.65
2019-05-03T12:53:07.204Z,3.62
2019-05-03T12:55:37.424Z,4.58
2019-05-03T12:58:07.224Z,3.47
2019-05-03T13:00:38.664Z,3.37
2019-05-03T13:03:16.345Z,1.55
2019-05-03T13:05:46.299Z,3.50
2019-05-03T13:08:36.700Z,2.02
2019-05-03T13:11:06.648Z,2.50
2019-05-03T13:13:36.529Z,3.27
2019-05-03T13:16:06.901Z,5.42
2019-05-03T13:18:36.712Z,1.60
2019-05-03T13:21:06.658Z,3.17
2019-05-03T13:23:36.555Z,5.95
2019-05-03T13:26:06.413Z,3.25
2019-05-03T13:28:36.373Z,2.58
2019-05-03T13:31:06.323Z,2.35
2019-05-03T13:33:36.100Z,6.15
2019-05-03T13:36:05.905Z,8.18
2019-05-03T13:38:35.723Z,9.83
2019-05-03T13:41:06.723Z,8.38
2019-05-03T13:43:36.735Z,10.82
2019-05-03T13:46:06.598Z,3.75
2019-05-03T13:48:45.400Z,3.20
2019-05-03T13:51:09.742Z,2.70
2019-05-03T13:53:39.638Z,4.25
2019-05-03T13:56:09.569Z,4.80
2019-05-03T13:58:39.804Z,3.70
2019-05-03T14:01:09.692Z,4.60
2019-05-03T14:03:39.575Z,3.80
2019-05-03T14:06:09.854Z,3.30
2019-05-03T14:08:39.736Z,2.40
2019-05-03T14:11:09.987Z,2.90
2019-05-03T14:13:39.916Z,4.05
2019-05-03T14:16:09.863Z,3.98
2019-05-03T14:18:41.424Z,5.62
2019-05-03T14:21:14.954Z,3.72
2019-05-03T14:24:02.517Z,3.80
2019-05-03T14:26:35.166Z,3.92
2019-05-03T14:29:05.724Z,6.78
2019-05-03T14:31:35.871Z,5.30
2019-05-03T14:34:06.102Z,4.22
2019-05-03T14:36:36.140Z,6.62
2019-05-03T14:39:09.842Z,3.60
2019-05-03T14:41:38.779Z,3.55
2019-05-03T14:44:08.736Z,2.98
2019-05-03T14:46:38.763Z,2.45
2019-05-03T14:49:08.645Z,3.05
2019-05-03T14:51:38.533Z,3.22
2019-05-03T14:54:09.270Z,2.77
2019-05-03T14:56:46.791Z,2.52
2019-05-03T14:59:28.449Z,2.33
2019-05-03T15:02:09.007Z,2.85
2019-05-03T15:04:38.813Z,4.47
2019-05-03T15:07:08.682Z,2.60
2019-05-03T15:09:38.545Z,3.22
2019-05-03T15:12:08.486Z,2.83
2019-05-03T15:14:38.416Z,1.67
2019-05-03T15:17:08.288Z,2.35
2019-05-03T15:19:38.107Z,2.85
2019-05-03T15:22:08.065Z,2.52
2019-05-03T15:24:37.925Z,4.03
2019-05-03T15:27:07.725Z,3.05
2019-05-03T15:29:37.607Z,3.50
2019-05-03T15:32:07.890Z,2.15
2019-05-03T15:34:37.745Z,3.60
2019-05-03T15:37:07.615Z,4.67
2019-05-03T15:39:37.479Z,4.08
2019-05-03T15:42:07.417Z,5.42
2019-05-03T15:44:54.601Z,3.55
2019-05-03T15:47:35.382Z,4.10
2019-05-03T15:50:06.399Z,3.17
2019-05-03T15:52:37.347Z,1.90
2019-05-03T15:55:07.711Z,1.85
2019-05-03T15:57:37.655Z,4.10
2019-05-03T16:00:09.249Z,4.10
2019-05-03T16:02:39.740Z,2.08
2019-05-03T16:05:09.632Z,2.25
2019-05-03T16:07:40.709Z,3.95
2019-05-03T16:10:11.017Z,4.28
2019-05-03T16:12:40.900Z,4.10
2019-05-03T16:15:10.850Z,2.05
2019-05-03T16:17:40.720Z,2.62
2019-05-03T16:20:10.596Z,4.87
2019-05-03T16:22:40.393Z,5.45
2019-05-03T16:25:10.619Z,4.65
2019-05-03T16:27:47.194Z,5.65
2019-05-03T16:30:36.450Z,2.87
2019-05-03T16:33:04.730Z,4.08
2019-05-03T16:35:37.792Z,4.62
2019-05-03T16:38:06.195Z,2.80
2019-05-03T16:40:36.285Z,3.85
2019-05-03T16:43:06.240Z,1.80
2019-05-03T16:45:36.194Z,3.95
2019-05-03T16:48:06.089Z,2.45
2019-05-03T16:50:35.881Z,1.50
2019-05-03T16:53:06.833Z,4.05
2019-05-03T16:55:36.725Z,3.87
2019-05-03T16:58:06.674Z,1.98
2019-05-03T17:00:36.673Z,2.12
2019-05-03T17:03:06.550Z,2.67
2019-05-03T17:05:46.999Z,2.98
2019-05-03T17:08:21.347Z,3.33
2019-05-03T17:10:58.749Z,3.40
2019-05-03T17:13:28.703Z,3.72
2019-05-03T17:15:58.715Z,2.42
2019-05-03T17:18:28.993Z,2.35
2019-05-03T17:20:58.893Z,2.00
2019-05-03T17:23:28.705Z,2.40
2019-05-03T17:25:58.709Z,3.47
2019-05-03T17:28:28.596Z,4.72
2019-05-03T17:30:58.480Z,5.45
2019-05-03T17:33:28.365Z,5.60
2019-05-03T17:35:58.877Z,7.22
2019-05-03T17:38:29.136Z,4.65
2019-05-03T17:41:00.599Z,7.03
2019-05-03T17:43:38.201Z,4.17
2019-05-03T17:46:09.782Z,8.28
2019-05-03T17:48:39.672Z,8.30
2019-05-03T17:51:11.121Z,7.78
2019-05-03T17:53:42.654Z,4.37
2019-05-03T17:56:15.277Z,9.10
2019-05-03T17:58:46.892Z,5.05
2019-05-03T18:01:36.353Z,7.95
2019-05-03T18:04:09.463Z,8.68
2019-05-03T18:06:46.898Z,8.40
2019-05-03T18:09:19.693Z,9.30
2019-05-03T18:11:54.136Z,10.70
2019-05-03T18:14:25.083Z,6.65
2019-05-03T18:16:56.121Z,11.18
2019-05-03T18:19:26.068Z,11.83
2019-05-03T18:21:55.967Z,13.53
2019-05-03T18:24:25.881Z,9.23
2019-05-03T18:26:55.981Z,9.55
2019-05-03T18:29:25.797Z,9.98
2019-05-03T18:31:55.783Z,9.45
2019-05-03T18:34:26.048Z,8.58
2019-05-03T18:36:55.852Z,11.15
2019-05-03T18:39:25.665Z,10.03
2019-05-03T18:41:55.773Z,9.55
2019-05-03T18:44:30.497Z,10.75
2019-05-03T18:47:05.465Z,9.58
2019-05-03T18:49:35.478Z,8.23
2019-05-03T18:52:06.696Z,9.85
2019-05-03T18:54:37.031Z,9.28
2019-05-03T18:57:06.928Z,9.90
2019-05-03T18:59:36.792Z,10.90
2019-05-03T19:02:06.741Z,10.93
2019-05-03T19:04:50.339Z,9.25
2019-05-03T19:07:25.053Z,11.85
2019-05-03T19:10:08.383Z,10.98
2019-05-03T19:12:39.911Z,11.00
2019-05-03T19:15:10.664Z,12.35
2019-05-03T19:17:48.210Z,12.00
2019-05-03T19:20:19.133Z,9.80
2019-05-03T19:22:48.919Z,9.73
2019-05-03T19:25:18.733Z,10.35
2019-05-03T19:27:49.680Z,12.13
2019-05-03T19:30:20.075Z,11.95
2019-05-03T19:32:52.672Z,9.33
2019-05-03T19:35:24.971Z,10.53
2019-05-03T19:37:55.473Z,12.60
2019-05-03T19:40:25.904Z,9.95
2019-05-03T19:42:55.792Z,12.82
2019-05-03T19:45:25.749Z,10.93
2019-05-03T19:47:55.661Z,12.63
2019-05-03T19:50:27.362Z,11.30
2019-05-03T19:52:58.703Z,11.05
2019-05-03T19:55:28.634Z,11.75
2019-05-03T19:57:58.520Z,11.65
2019-05-03T20:00:43.173Z,13.53
2019-05-03T20:03:15.458Z,10.95
2019-05-03T20:05:47.448Z,13.83
2019-05-03T20:08:27.747Z,13.87
2019-05-03T20:11:14.855Z,12.70
2019-05-03T20:13:45.636Z,12.37
2019-05-03T20:16:15.724Z,11.30
2019-05-03T20:18:45.843Z,12.23
2019-05-03T20:21:16.859Z,11.22
2019-05-03T20:23:47.160Z,11.95
2019-05-03T20:26:17.301Z,11.43
2019-05-03T20:28:48.173Z,12.78
2019-05-03T20:31:18.048Z,10.48
2019-05-03T20:33:48.096Z,10.30
2019-05-03T20:36:17.965Z,10.10
2019-05-03T20:38:47.861Z,10.98
2019-05-03T20:41:17.822Z,9.38
2019-05-03T20:43:52.352Z,10.68
2019-05-03T20:46:25.446Z,10.00
2019-05-03T20:48:57.093Z,10.60
2019-05-03T20:51:26.926Z,7.17
2019-05-03T20:53:56.794Z,7.10
2019-05-03T20:56:26.624Z,6.97
2019-05-03T20:58:56.493Z,10.55
2019-05-03T21:01:26.515Z,8.73
2019-05-03T21:03:56.540Z,6.70
2019-05-03T21:06:34.827Z,6.15
2019-05-03T21:08:58.090Z,9.28
2019-05-03T21:11:28.012Z,7.28
2019-05-03T21:13:57.924Z,7.90
2019-05-03T21:16:29.440Z,6.65
2019-05-03T21:19:09.774Z,7.87
2019-05-03T21:21:44.502Z,6.22
2019-05-03T21:24:24.145Z,7.00
2019-05-03T21:26:54.672Z,6.47
2019-05-03T21:29:24.556Z,8.43
2019-05-03T21:31:55.244Z,8.13
2019-05-03T21:34:25.292Z,7.97
2019-05-03T21:36:55.212Z,7.83
2019-05-03T21:39:25.169Z,8.83
2019-05-03T21:41:55.542Z,6.17
2019-05-03T21:44:32.953Z,9.10
2019-05-03T21:47:10.485Z,7.78
2019-05-03T21:49:45.095Z,7.50
2019-05-03T21:52:14.915Z,6.83
2019-05-03T21:54:45.059Z,8.38
2019-05-03T21:57:16.639Z,7.87
2019-05-03T21:59:46.609Z,7.50
2019-05-03T22:02:16.772Z,8.98
2019-05-03T22:04:46.644Z,9.20
2019-05-03T22:07:16.449Z,7.78
2019-05-03T22:09:46.242Z,9.93
2019-05-03T22:12:16.045Z,7.92
2019-05-03T22:14:50.556Z,6.90
2019-05-03T22:17:28.100Z,8.88
2019-05-03T22:19:59.609Z,7.65
2019-05-03T22:22:40.483Z,7.28
2019-05-03T22:25:15.118Z,8.83
2019-05-03T22:27:45.564Z,7.53
2019-05-03T22:30:17.551Z,7.67
2019-05-03T22:32:47.495Z,8.40
2019-05-03T22:35:17.408Z,8.60
2019-05-03T22:37:47.345Z,10.40
2019-05-03T22:40:17.305Z,16.65
2019-05-03T22:42:47.108Z,12.03
2019-05-03T22:45:17.053Z,11.78
2019-05-03T22:47:46.876Z,10.68
2019-05-03T22:50:16.764Z,11.05
2019-05-03T22:52:46.561Z,8.90
2019-05-03T22:55:16.500Z,11.70
2019-05-03T22:57:46.517Z,8.45
2019-05-03T23:00:16.391Z,8.50
2019-05-03T23:02:47.867Z,8.85
2019-05-03T23:05:17.732Z,11.28
2019-05-03T23:07:47.563Z,11.43
2019-05-03T23:10:17.554Z,8.65
2019-05-03T23:12:47.435Z,8.25
2019-05-03T23:15:17.345Z,9.83
2019-05-03T23:17:47.525Z,9.65
2019-05-03T23:20:37.164Z,10.23
2019-05-03T23:23:07.043Z,8.50
2019-05-03T23:25:37.353Z,12.95
2019-05-03T23:28:07.173Z,10.13
2019-05-03T23:30:37.176Z,9.75
2019-05-03T23:33:09.365Z,9.48
2019-05-03T23:35:39.317Z,10.85
2019-05-03T23:38:09.203Z,8.88
2019-05-03T23:40:38.992Z,9.30
2019-05-03T23:43:09.120Z,9.83
2019-05-03T23:45:38.917Z,9.18
2019-05-03T23:48:08.808Z,12.23
2019-05-03T23:50:41.022Z,11.22
2019-05-03T23:53:10.989Z,11.10
2019-05-03T23:55:45.035Z,13.60
2019-05-03T23:58:14.960Z,11.10
